Vue régionale

METAR et TAF

Mardi 26 janvier 2021 à 22h15

Visibilités horizontales observées à différents aéroports. Les observations (METAR) et prévisions aéronautiques (TAF) complètes sont disponibles en cliquant sur l’icône correspondante.

  • Luxemburg (ELLX)

    Taf: TAF ELLX 261700Z 2618/2724 25012KT 9999 SCT008 BKN012 BECMG 2618/2620 21006KT BKN025 BECMG 2623/2701 4500 -SN BR BKN012 TEMPO 2702/2710 0800 SN FG OVC002 PROB30 TEMPO 2710/2713 2500 -FZDZ BKN004 TEMPO 2713/2721 2500 -DZ BKN006=

    Metar: METAR ELLX 262050Z 23006KT CAVOK M01/M02 Q1019 NOSIG=

  • Spangdahlem (ETAD)

    Taf: TAF AMD ETAD 261840Z 2618/2719 21009KT 9999 OVC010 QNH3002INS BECMG 2700/2701 22009KT 9999 BKN005 OVC015 620059 QNH2998INS TEMPO 2702/2711 8000 -SHSN BR BKN003 OVC015 640039 BECMG 2712/2713 22009KT 9999 BKN008 BKN014 OVC020 620089 QNH2988INS TX04/2713Z TNM01/2704Z=

    Metar: METAR ETAD NIL=

  • Metz/Nancy (LFJL)

    Taf: TAF LFJL 261700Z 2618/2718 23006KT 9999 SCT050 BKN090 TEMPO 2700/2711 -SN PROB40 TEMPO 2707/2711 2000 -SN BR BKN004 PROB30 TEMPO 2708/2710 -FZRA TEMPO 2711/2718 2000 -RA BR OVC005 PROB40 TEMPO 2715/2718 OVC002=

    Metar: METAR LFJL 262100Z AUTO 19010KT CAVOK M00/M03 Q1021 NOSIG=

  • Saarbrücken/Intl (EDDR)

    Taf: TAF EDDR 261700Z 2618/2718 24007KT 9999 BKN020 PROB30 TEMPO 2618/2620 BKN012 TEMPO 2702/2709 2000 SN OVC004 TEMPO 2709/2713 20013KT TEMPO 2709/2718 2000 DZ OVC003 PROB30 TEMPO 2709/2711 FZDZ=

    Metar: METAR EDDR 262050Z 22006KT CAVOK M01/M02 Q1021 NOSIG=

  • Hahn (EDFH)

    Taf: TAF EDFH 261800Z NIL=

    Metar: METAR EDFH 262050Z 26013KT 9999 BKN009 M01/M02 Q1018=

  • Ramstein (ETAR)

    Taf: TAF ETAR 261800Z 2618/2724 24009KT 9999 SCT015 BKN030 620303 QNH3000INS TEMPO 2618/2623 BKN015 BECMG 2703/2704 24009KT 6000 -SN OVC012 620158 QNH2998INS BECMG 2708/2709 26010G20KT 5000 -SN OVC012 620128 520004 QNH2993INS BECMG 2711/2712 26010G20KT 6000 -SNRA OVC015 620158 520004 QNH2994INS BECMG 2714/2715 26010G20KT 9999 NSW OVC015 620155 520004 QNH2995INS BECMG 2717/2718 26010G15KT 9999 OVC015 620155 QNH2995INS TX03/2714Z TNM01/2703Z=

    Metar: nil

  • Nancy/Ochey (LFSO)

    Taf: TAF LFSO 262000Z 2621/2721 22010KT CAVOK TEMPO 2703/2707 -SN BECMG 2707/2708 OVC010 PROB40 TEMPO 2708/2711 1000 -SN OVC002 BECMG 2711/2713 -RA OVC006 TEMPO 2713/2721 2000 -DZ OVC003=

    Metar: METAR LFSO 262100Z AUTO 20008KT CAVOK 01/M02 Q1021 NOSIG=

  • Liège Bierset (EBLG)

    Taf: TAF EBLG 261710Z 2618/2724 22009KT 9999 FEW025 BECMG 2621/2623 4000 BR BKN009 TEMPO 2700/2706 1100 SN BKN002 PROB30 2706/2708 FZRA PROB40 TEMPO 2706/2712 0800 FG BKN001 TEMPO 2708/2715 2200 SNRA DZ BKN003=

    Metar: METAR EBLG 262050Z 19010KT CAVOK 01/M03 Q1018 NOSIG=

  • Saint-Dizier (LFSI)

    Taf: TAF LFSI 262000Z 2621/2721 21005KT CAVOK BECMG 2704/2706 4000 -DZRA OVC006 PROB40 TEMPO 2704/2710 2000 -SN BKN004=

    Metar: METAR LFSI 262100Z AUTO 16006KT CAVOK 02/M01 Q1021=

  • Maastricht/Zuid Limburg (EHBK)

    Taf: TAF EHBK 261713Z 2618/2724 23010KT 9999 SCT030 BECMG 2623/2702 20012KT 7000 -RASN BKN012 TEMPO 2701/2707 4000 RASN BKN008 PROB30 TEMPO 2701/2704 2500 SNRA -SN BKN004 BECMG 2707/2710 23012KT 4000 BR -DZ BKN008 PROB30 2707/2717 0800 FG BKN002 BECMG 2717/2720 0800 FG BKN002=

    Metar: METAR EHBK 262055Z AUTO 21011KT 9999 NSC 02/M02 Q1018 NOSIG=

  • Köln/Köln-Bonn (EDDK)

    Taf: TAF EDDK 261700Z 2618/2724 22007KT 9999 BKN020 BECMG 2621/2624 16007KT PROB30 TEMPO 2701/2707 4000 SNRA BECMG 2707/2710 BKN012 TEMPO 2710/2724 BKN008 BECMG 2713/2716 26006KT=

    Metar: METAR EDDK 262050Z 18006KT 9999 FEW026 SCT044 02/M01 Q1019 NOSIG=

  • Charleroi (EBCI)

    Taf: TAF EBCI 261710Z 2618/2724 22009KT 9999 FEW025 BECMG 2621/2623 4000 BR BKN009 TEMPO 2700/2706 1100 SN BKN002 PROB30 2706/2708 FZRA PROB40 TEMPO 2706/2712 0800 FG BKN001 TEMPO 2708/2715 2200 SNRA DZ BKN003=

    Metar: METAR EBCI 262050Z 19010KT CAVOK 02/M03 Q1018 NOSIG=

  • Wiesbaden (ETOU)

    Taf: TAF ETOU 261300Z 2613/2719 29015KT 9999 BKN025 620258 QNH3003INS TEMPO 2613/2616 27010KT 9000 -RA BKN020 620208 BECMG 2617/2618 24006KT 9999 SCT020 BKN035 620357 QNH3009INS BECMG 2622/2623 VRB03KT 9999 BKN012 620122 QNH3008INS BECMG 2705/2706 20010G18KT 5000 -SN BR OVC010 620108 QNH2996INS BECMG 2714/2715 23006KT 9000 -RA OVC015 620158 QNH2989INS TX02/2712Z TNM01/2622Z=

    Metar: METAR ETOU NIL=

  • Karlsruhe/Baden-Baden (EDSB)

    Taf: TAF EDSB 261700Z 2618/2718 20009KT 9999 BKN030 TEMPO 2703/2709 4000 -SN OVC014 TEMPO 2709/2713 2500 DZ OVC012 TEMPO 2711/2714 21015G25KT TEMPO 2713/2718 4000 -DZ OVC010=

    Metar: METAR EDSB 262050Z 22007KT 9999 FEW046 BKN061 02/M02 Q1022=

  • Chalons/Vatry (LFOK)

    Taf: TAF LFOK 261700Z 2618/2718 18010KT CAVOK TEMPO 2701/2704 4000 -SN BECMG 2703/2705 4000 DZRA OVC003 BECMG 2706/2708 24007KT 1500 BR OVC002 TEMPO 2708/2718 0500 DZ FG VV///=

    Metar: METAR LFOK 262100Z AUTO 18011KT CAVOK 01/M01 Q1020 NOSIG=

  • Frankfurt/Main (EDDF)

    Taf: TAF EDDF 261800Z NIL=

    Metar: METAR EDDF 262050Z 21010KT CAVOK 01/M02 Q1020 R25L/19//95 R25C/19//95 R18/19//95 NOSIG=

  • Brüssel (EBBR)

    Taf: TAF EBBR 261710Z 2618/2724 22009KT 9999 SCT024 BECMG 2620/2622 4000 BR BKN012 TEMPO 2700/2706 2200 SNRA SN BKN004 PROB40 TEMPO 2706/2712 2500 DZ BKN003=

    Metar: METAR EBBR 262050Z 20009KT CAVOK 03/M03 Q1017 NOSIG=

  • Düsseldorf (EDDL)

    Taf: TAF EDDL 261700Z 2618/2724 22007KT 9999 BKN020 BECMG 2620/2623 16010KT TEMPO 2701/2707 4000 -SNRA BKN009 BECMG 2707/2710 BKN012 TEMPO 2707/2724 4000 -DZ BR BKN007 BECMG 2717/2720 23008KT=

    Metar: METAR EDDL 262050Z 21009KT CAVOK 02/00 Q1018 NOSIG=

  • Luxeuil (LFSX)

    Taf: TAF LFSX 262000Z 2621/2721 12006KT CAVOK FM270800 15007KT 4900 -SNRA FEW014 BKN020 TEMPO 2709/2721 2000 RADZ OVC005=

    Metar: METAR LFSX 262100Z AUTO 10005KT CAVOK 00/M01 Q1023=

  • Eindhoven (EHEH)

    Taf: TAF EHEH 261751Z 2618/2724 21006KT 9999 SCT022 BECMG 2701/2703 21012KT 3500 -RASN SCT008 BKN012 OVC020 PROB40 TEMPO 2702/2709 2500 -SNRA SCT005 BKN010 BKN012 BECMG 2709/2711 25008KT 4000 -DZRA BR SCT007 BKN012 OVC020 TEMPO 2710/2714 2000 DZRA SCT002 BKN003 OVC005 BECMG 2714/2716 6000 NSW FEW010 SCT015 BKN020 TEMPO 2714/2724 4000 -RADZ SCT005 BKN010 PROB40 2721/2724 1500 BR=

    Metar: METAR EHEH 262055Z AUTO 21007KT 9999 OVC092 03/M01 Q1017 BLU=

  • Niederrhein (EDLV)

    Taf: TAF EDLV 261700Z NIL=

    Metar: METAR EDLV 262050Z NIL=

  • Dortmund/Wickede (EDLW)

    Taf: TAF EDLW 261700Z 2618/2718 23008KT 9999 BKN020 TEMPO 2705/2711 4000 -SNRA BKN012 BECMG 2711/2713 BKN008 TEMPO 2711/2718 3000 -DZRA BKN004=

    Metar: METAR EDLW 262050Z 20009KT CAVOK 02/00 Q1017=

  • Stuttgart/Echterdingen (EDDS)

    Taf: TAF EDDS 261700Z 2618/2718 24009KT 9999 BKN040 TEMPO 2704/2707 4000 -SN BKN014 TEMPO 2707/2711 2000 SN OVC008 PROB30 TEMPO 2710/2712 -FZDZ TEMPO 2711/2718 4000 -DZ BKN012=

    Metar: METAR EDDS 262050Z 26002KT CAVOK M01/M04 Q1020 NOSIG=

  • Basel-Mühlhausen (LFSB)

    Taf: TAF AMD LFSB 262052Z 2620/2718 VRB03KT 9999 OVC040 TEMPO 2706/2708 -SN TEMPO 2708/2715 4000 -SN OVC008 PROB40 TEMPO 2711/2715 1200 SN BKN006 TEMPO 2715/2718 26012KT -RA=

    Metar: METAR LFSB 262100Z AUTO 15003KT 9999 SCT047 BKN054 OVC074 01/M02 Q1023 NOSIG=

  • Lille (LFQQ)

    Taf: TAF LFQQ 261700Z 2618/2724 18010KT CAVOK TEMPO 2620/2623 3000 SN BKN014 BECMG 2623/2701 4000 DZRA BR BKN004 OVC012 BECMG 2704/2706 1500 BR OVC002 TEMPO 2706/2710 0700 FG VV/// BECMG 2710/2712 27010KT 9999 NSW BKN011 BECMG 2717/2719 18007KT 4000 DZRA OVC007 TEMPO 2719/2724 2000 DZ OVC002=

    Metar: METAR LFQQ 262100Z AUTO 17011KT 9999 FEW043 SCT054 BKN080 03/M01 Q1016 TEMPO 3000 SN BKN014=

  • Paris/Charles de Gaulle (LFPG)

    Taf: TAF LFPG 261700Z 2618/2724 24010KT CAVOK TX09/2715Z TN02/2702Z PROB30 TEMPO 2622/2624 4000 -RASN BECMG 2702/2704 BKN008 BECMG 2705/2707 BKN004 TEMPO 2708/2713 2000 BR BKN002 PROB40 TEMPO 2721/2724 3000 RA=

    Metar: METAR LFPG 262100Z 19011KT CAVOK 03/M02 Q1019 TEMPO 4000 -RASN=

  • Paderborn/Lippstadt (EDLP)

    Taf: TAF AMD EDLP 262028Z 2620/2718 23007KT 9999 BKN013 BECMG 2620/2623 BKN020 BECMG 2702/2705 17008KT TEMPO 2707/2713 4000 -SNRA BKN012 BECMG 2713/2715 23008KT BKN008 TEMPO 2713/2718 3000 -DZRA BKN004=

    Metar: METAR EDLP 262050Z 23009KT 9999 BKN013 BKN021 OVC027 01/M01 Q1017=

  • Paris/Le Bourget (LFPB)

    Taf: TAF LFPB 261800Z NIL=

    Metar: METAR LFPB 262100Z AUTO 17012KT CAVOK 03/M02 Q1019 TEMPO 4000 -RASN BECMG 24010KT=

  • Rotterdam (EHRD)

    Taf: TAF EHRD 261721Z 2618/2724 21007KT 9999 SCT025 BECMG 2618/2621 19012KT BECMG 2700/2703 4500 -RASN -RA BKN014 PROB40 TEMPO 2701/2704 2500 -SNRA BKN008 BECMG 2703/2706 4500 BR -DZ SCT003 BKN005 BECMG 2708/2711 28014KT 9999 NSW BKN015 PROB30 TEMPO 2711/2721 5000 -RADZ BKN008 BECMG 2717/2720 30005KT=

    Metar: METAR EHRD 262055Z AUTO 18009KT 150V210 9999 NSC 04/01 Q1016 NOSIG=

  • Zürich/Kloten (LSZH)

    Taf: TAF LSZH 262025Z 2621/2803 VRB02KT 9999 BKN060 TX03/2700Z TNM03/2705Z PROB40 2621/2704 CAVOK TEMPO 2705/2709 1500 -SN BKN008 TEMPO 2708/2714 3000 -SN BKN010 TEMPO 2713/2719 4000 -SNRA BKN013 TEMPO 2718/2724 RA=

    Metar: METAR LSZH 262050Z 22003KT 9999 FEW050 BKN072 M01/M05 Q1022 NOSIG=

  • Oostende/Intl (EBOS)

    Taf: TAF EBOS 261710Z 2618/2724 21011KT 9999 SCT030 BECMG 2619/2621 BKN014 PROB40 TEMPO 2621/2702 2200 RASN SN BKN004 TEMPO 2702/2708 3500 -DZRA BKN004 PROB40 TEMPO 2705/2708 0800 FG BKN001 BECMG 2708/2710 29013KT SCT016 BECMG 2721/2723 3000 BR=

    Metar: METAR EBOS 262050Z 19012KT 9999 SCT035 BKN045 02/M01 Q1016 TEMPO 2500 RASN BKN010=

  • Paris/Orly (LFPO)

    Taf: TAF LFPO 261800Z NIL=

    Metar: METAR LFPO 262100Z 19008KT CAVOK 03/M02 Q1019 NOSIG=

  • Beauvais (LFOB)

    Taf: TAF LFOB 261700Z 2618/2718 18010KT 9999 OVC040 TEMPO 2620/2622 3000 -SN BKN014 BECMG 2623/2701 4000 DZRA BR BKN007 OVC012 BECMG 2702/2704 27007KT 1500 BR OVC002 TEMPO 2706/2718 0700 DZ FG VV///=

    Metar: METAR LFOB 262100Z AUTO 17006KT 9999 FEW017 SCT029 OVC036 03/M01 Q1018 TEMPO 3000 -SN BKN014=

  • Münster/Intl (EDDG)

    Taf: TAF EDDG 261700Z 2618/2718 23005KT 9999 BKN020 BECMG 2623/2702 16005KT BECMG 2705/2708 BKN010 TEMPO 2705/2710 3500 -SNRA BKN007 BECMG 2710/2712 BKN008 TEMPO 2710/2718 3000 -DZRA BR BKN003 BECMG 2712/2714 22007KT=

    Metar: METAR EDDG 262050Z 21004KT 170V240 9999 FEW012 SCT040 03/01 Q1017 NOSIG=

  • Illesheim (ETIK)

    Taf: TAF ETIK 2615/2721 28012G20KT 6000 -SN BKN015 OVC030 620207 510207 QNH2999INS BECMG 2623/2624 26009KT 9999 NSW BKN015 620154 QNH2998INS BECMG 2707/2708 VRB06KT 8000 BR SCT015 BKN030 620306 QNH2992INS BECMG 2710/2711 21009KT 9999 NSW BKN015 OVC025 620157 QNH2989INS BECMG 2713/2714 26009KT 6000 -SN BKN010 OVC020 620107 QNH2989INS TX01/2615Z TNM03/2707Z=

    Metar: METAR ETIK 262000Z NIL=

  • Duebendorf (LSMD)

    Taf: TAF LSMD 261625Z 2617/2723 25010KT 9999 BKN050 BECMG 2617/2620 VRB02KT CAVOK BECMG 2701/2704 9999 BKN060 TEMPO 2705/2709 2500 -SN BKN008 TEMPO 2708/2713 3000 -SN BKN010 TEMPO 2713/2721 4000 -SNRA BKN013 PROB40 2718/2723 RA=

    Metar: METAR LSMD 262050Z AUTO 17004KT 9999NDV FEW053 OVC071 M00/M05 Q1022 RMK=

  • Villacoublay (LFPV)

    Taf: TAF LFPV 260800Z 2609/2709 22006KT CAVOK TX04/2615Z TN00/2609Z BECMG 2619/2621 22010G20KT 4500 -RA BECMG 2623/2701 BKN020 BECMG 2702/2704 OVC006 BECMG 2704/2706 27008KT TEMPO 2704/2709 2500 -DZ OVC003=

    Metar: METAR LFPV 262100Z AUTO 18008KT 150V210 CAVOK 02/M01 Q1018 NOSIG=

  • Payerne (LSMP)

    Taf: TAF LSMP 261625Z 2617/2723 20005KT 9999 BKN050 TEMPO 2707/2710 1200 SN VV007 BECMG 2711/2713 23015KT RA=

    Metar: METAR LSMP 262050Z AUTO 18004KT 9999NDV OVC100 M01/M04 Q1023 RMK=

  • Amsterdam/Schipol (EHAM)

    Taf: TAF EHAM 261721Z 2618/2724 21007KT 9999 SCT025 BECMG 2618/2621 19012KT BECMG 2700/2703 BKN014 TEMPO 2700/2705 4500 -RASN -RA PROB30 TEMPO 2702/2705 2500 -SNRA BECMG 2703/2706 4500 BR -DZ SCT003 BKN005 BECMG 2708/2711 28014KT 9999 NSW BKN015 PROB30 TEMPO 2711/2721 5000 -RADZ BKN008 BECMG 2717/2720 30005KT SCT025=

    Metar: METAR EHAM 262055Z 20010KT 9999 FEW031 04/02 Q1015 NOSIG=

  • Emmen (LSME)

    Taf: TAF LSME 261625Z 2617/2723 VRB02KT CAVOK BECMG 2700/2703 9999 BKN060 TEMPO 2705/2709 2500 -SN BKN008 TEMPO 2708/2714 3000 -SN BKN010 TEMPO 2713/2723 4000 -SNRA BKN013 PROB40 2718/2723 RA=

    Metar: METAR LSME 262050Z AUTO VRB02KT 9999NDV BKN140 M01/M05 Q1023 RMK=

  • Friedrichshafen (EDNY)

    Taf: TAF EDNY 261700Z 2618/2718 25010KT 9999 SCT040 BECMG 2619/2622 23004KT BECMG 2707/2709 4500 -SN BKN012 TEMPO 2710/2716 1500 SN BKN008=

    Metar: METAR EDNY 262050Z AUTO VRB02KT 9999 // OVC045/// 00/M05 Q1022=

  • Alpnach (LSMA)

    Taf: TAF LSMA 261625Z 2617/2723 VRB02KT CAVOK BECMG 2623/2702 9999 BKN060 TEMPO 2705/2716 3000 -SN BKN008 PROB40 TEMPO 2705/2713 1000 SN VV004 TEMPO 2714/2723 4000 SNRA BKN010 PROB40 2718/2723 RA=

    Metar: METAR LSMA 262050Z AUTO 19005KT 9999NDV OVC140 M03/M05 Q1023 RMK=

  • Meiringen (LSMM)

    Taf: TAF LSMM 261625Z 2617/2723 VRB02KT CAVOK BECMG 2623/2702 9999 BKN060 TEMPO 2705/2717 3000 -SN BKN006 PROB40 TEMPO 2705/2714 1500 SN VV005 PROB30 TEMPO 2707/2712 0600 +SN VV002 TEMPO 2715/2723 4000 -SNRA BKN013=

    Metar: METAR LSMM 262050Z 09004KT 9999 OVC120 M03/M06 Q1022 RMK BLU=

  • Nürnberg (EDDN)

    Taf: TAF EDDN 261700Z 2618/2718 27010KT 9999 BKN012 TEMPO 2618/2621 3000 -SN BKN008 BECMG 2620/2622 26004KT BECMG 2705/2707 16005KT SCT020 BECMG 2710/2713 4500 -SN BKN012 TEMPO 2713/2718 1500 SN BKN008=

    Metar: METAR EDDN 262050Z 28007KT 4500 -SN SCT004 BKN009 M00/M01 Q1019 R28/59//93 BECMG 7000 BKN012=

  • Rouen (LFOP)

    Taf: TAF AMD LFOP 262100Z 2621/2718 CNL=

    Metar: METAR LFOP 262100Z AUTO 15008KT 9999 -RA OVC032/// ///TCU 02/M00 Q1016 TEMPO 3000 RA BECMG BKN007 OVC012=

  • Evreux (LFOE)

    Taf: TAF AMD LFOE 260620Z 2606/2703 20008KT CAVOK TEMPO 2616/2624 3000 -RASN PROB40 TEMPO 2618/2624 2000 -SN PROB30 TEMPO 2620/2624 -FZRA BECMG 2700/2703 4000 -RA OVC009=

    Metar: METAR LFOE 262100Z AUTO 17009KT 9999 OVC036/// ///TCU 03/M01 Q1017 TEMPO 4000 -RA BECMG FEW015 BKN045=

  • Erfurt/Bindersleben (EDDE)

    Taf: TAF EDDE 261700Z 2618/2718 29008KT 9999 BKN030 BECMG 2620/2623 23005KT TEMPO 2710/2718 4000 -SN BKN012 PROB30 TEMPO 2712/2715 2000 SN BKN008=

    Metar: METAR EDDE 262050Z 24009KT 9999 BKN044 M01/M03 Q1017 R88/890393 NOSIG=